createdAt,value
2017-09-26T00:00:22.219Z,65.07
2017-09-26T00:02:49.797Z,65.02
2017-09-26T00:05:17.405Z,65.31
2017-09-26T00:07:44.969Z,65.92
2017-09-26T00:10:12.687Z,65.95
2017-09-26T00:12:41.175Z,66.12
2017-09-26T00:15:11.731Z,66.68
2017-09-26T00:17:39.664Z,65.95
2017-09-26T00:20:12.194Z,65.68
2017-09-26T00:22:41.045Z,65.94
2017-09-26T00:25:08.904Z,65.63
2017-09-26T00:27:36.455Z,66.07
2017-09-26T00:30:04.095Z,66.25
2017-09-26T00:32:31.808Z,66.54
2017-09-26T00:34:59.450Z,66.42
2017-09-26T00:37:27.044Z,66.15
2017-09-26T00:39:54.680Z,65.81
2017-09-26T00:42:22.241Z,65.44
2017-09-26T00:44:49.799Z,65.11
2017-09-26T00:47:17.395Z,65.27
2017-09-26T00:49:44.938Z,65.08
2017-09-26T00:52:12.547Z,65.35
2017-09-26T00:54:40.158Z,65.42
2017-09-26T00:57:07.672Z,65.49
2017-09-26T00:59:35.216Z,65.67
2017-09-26T01:02:03.596Z,65.66
2017-09-26T01:04:31.178Z,65.60
2017-09-26T01:07:08.726Z,67.26
2017-09-26T01:09:36.926Z,66.40
2017-09-26T01:12:04.564Z,66.01
2017-09-26T01:14:32.262Z,66.70
2017-09-26T01:17:00.733Z,66.11
2017-09-26T01:19:28.298Z,66.97
2017-09-26T01:21:55.873Z,68.94
2017-09-26T01:24:23.389Z,68.51
2017-09-26T01:26:51.046Z,68.07
2017-09-26T01:29:18.848Z,67.56
2017-09-26T01:31:46.429Z,67.25
2017-09-26T01:34:13.997Z,66.78
2017-09-26T01:36:41.591Z,66.41
2017-09-26T01:39:09.320Z,66.46
2017-09-26T01:41:37.370Z,66.69
2017-09-26T01:44:05.085Z,67.00
2017-09-26T01:46:32.653Z,66.94
2017-09-26T01:49:00.213Z,66.93
2017-09-26T01:51:27.822Z,66.94
2017-09-26T01:53:55.421Z,67.17
2017-09-26T01:56:23.911Z,66.58
2017-09-26T02:01:59.989Z,66.30
2017-09-26T02:04:27.523Z,66.41
2017-09-26T02:06:55.192Z,66.07
2017-09-26T02:09:22.984Z,66.00
2017-09-26T02:11:50.650Z,68.16
2017-09-26T02:14:18.401Z,67.56
2017-09-26T02:16:46.010Z,67.68
2017-09-26T02:19:13.613Z,67.41
2017-09-26T02:21:41.192Z,66.93
2017-09-26T02:24:08.856Z,67.03
2017-09-26T02:26:36.383Z,66.59
2017-09-26T02:29:04.230Z,66.60
2017-09-26T02:31:31.762Z,66.43
2017-09-26T02:33:59.529Z,66.67
2017-09-26T02:36:27.057Z,66.65
2017-09-26T02:38:54.660Z,66.52
2017-09-26T02:41:22.588Z,67.18
2017-09-26T02:43:50.270Z,67.74
2017-09-26T02:46:17.961Z,67.44
2017-09-26T02:48:46.436Z,67.28
2017-09-26T02:51:13.962Z,67.36
2017-09-26T02:53:42.031Z,67.43
2017-09-26T02:56:10.387Z,67.45
2017-09-26T02:58:38.068Z,67.35
2017-09-26T03:01:05.679Z,67.20
2017-09-26T03:03:33.220Z,67.48
2017-09-26T03:06:00.936Z,68.31
2017-09-26T03:08:29.333Z,68.05
2017-09-26T03:10:57.881Z,67.87
2017-09-26T03:13:26.002Z,67.76
2017-09-26T03:15:53.583Z,67.56
2017-09-26T03:18:21.111Z,67.83
2017-09-26T03:20:48.631Z,68.35
2017-09-26T03:23:16.270Z,68.59
2017-09-26T03:25:44.110Z,68.61
2017-09-26T03:28:11.757Z,69.97
2017-09-26T03:30:39.508Z,69.91
2017-09-26T03:33:07.102Z,69.62
2017-09-26T03:35:34.781Z,69.32
2017-09-26T03:38:02.309Z,68.91
2017-09-26T03:40:29.954Z,68.98
2017-09-26T03:42:57.562Z,68.98
2017-09-26T03:45:25.100Z,68.95
2017-09-26T03:47:52.869Z,68.85
2017-09-26T03:50:21.262Z,68.69
2017-09-26T03:52:48.775Z,68.64
2017-09-26T03:55:16.329Z,68.98
2017-09-26T03:57:43.890Z,68.61
2017-09-26T04:00:11.535Z,68.66
2017-09-26T04:02:39.481Z,68.61
2017-09-26T04:05:08.730Z,68.70
2017-09-26T04:07:36.220Z,68.68
2017-09-26T15:37:48.648Z,44.31
2017-09-26T15:40:16.290Z,46.71
2017-09-26T15:42:43.788Z,49.21
2017-09-26T15:45:11.396Z,53.80
2017-09-26T15:47:38.998Z,60.26
2017-09-26T15:50:06.557Z,61.42
2017-09-26T15:52:34.118Z,63.44
2017-09-26T15:55:01.648Z,62.36
2017-09-26T15:57:29.181Z,63.17
2017-09-26T15:59:56.785Z,64.94
2017-09-26T16:02:24.314Z,62.68
2017-09-26T16:04:51.854Z,62.50
2017-09-26T16:07:19.479Z,60.58
2017-09-26T16:09:47.038Z,58.81
2017-09-26T16:12:14.547Z,57.33
2017-09-26T16:14:42.069Z,57.45
2017-09-26T16:17:13.207Z,56.87
2017-09-26T16:19:40.817Z,56.64
2017-09-26T16:22:08.297Z,55.42
2017-09-26T16:24:35.833Z,57.18
2017-09-26T16:27:03.370Z,56.21
2017-09-26T16:29:31.807Z,55.82
2017-09-26T16:31:59.359Z,56.66
2017-09-26T16:34:26.891Z,56.76
2017-09-26T16:36:54.426Z,55.58
2017-09-26T16:39:21.962Z,55.91
2017-09-26T16:41:49.477Z,57.46
2017-09-26T16:44:17.034Z,56.32
2017-09-26T16:46:44.576Z,56.54
2017-09-26T16:49:12.154Z,56.89
2017-09-26T16:51:39.627Z,56.49
2017-09-26T16:54:07.105Z,58.09
2017-09-26T16:56:34.611Z,58.97
2017-09-26T16:59:02.075Z,60.88
2017-09-26T17:01:29.750Z,60.26
2017-09-26T17:03:57.228Z,60.29
2017-09-26T17:06:24.844Z,60.63
2017-09-26T17:08:53.462Z,61.59
2017-09-26T17:11:21.043Z,61.26
2017-09-26T17:13:48.666Z,62.64
2017-09-26T17:16:16.323Z,63.59
2017-09-26T17:18:43.871Z,63.62
2017-09-26T17:21:11.447Z,64.92
2017-09-26T17:23:40.079Z,64.54
2017-09-26T17:26:07.670Z,63.62
2017-09-26T17:28:36.666Z,63.40
2017-09-26T17:31:05.196Z,63.52
2017-09-26T17:33:33.159Z,63.98
2017-09-26T17:36:00.767Z,63.25
2017-09-26T17:38:28.292Z,63.30
2017-09-26T17:40:55.888Z,62.87
2017-09-26T17:43:23.502Z,63.75
2017-09-26T17:45:55.359Z,65.21
2017-09-26T17:48:23.002Z,65.76
2017-09-26T17:50:51.442Z,66.15
2017-09-26T17:53:19.051Z,65.13
2017-09-26T17:55:46.547Z,65.58
2017-09-26T17:58:15.107Z,65.29
2017-09-26T18:00:43.112Z,65.56
2017-09-26T18:03:10.871Z,65.59
2017-09-26T18:05:38.627Z,65.43
2017-09-26T18:08:06.300Z,66.06
2017-09-26T18:10:36.563Z,66.58
2017-09-26T18:13:08.580Z,65.80
2017-09-26T18:15:40.984Z,65.77
2017-09-26T18:18:08.760Z,66.33
2017-09-26T18:20:37.785Z,66.60
2017-09-26T18:23:06.971Z,66.29
2017-09-26T18:25:35.889Z,67.76
2017-09-26T18:28:04.873Z,68.37
2017-09-26T18:30:32.714Z,69.16
2017-09-26T18:33:01.172Z,68.70
2017-09-26T18:35:29.191Z,68.37
2017-09-26T18:37:59.214Z,68.62
2017-09-26T18:40:28.004Z,68.09
2017-09-26T18:42:55.893Z,68.30
2017-09-26T18:45:28.549Z,68.87
2017-09-26T18:47:56.357Z,68.99
2017-09-26T18:50:24.379Z,68.56
2017-09-26T18:52:53.506Z,68.79
2017-09-26T18:55:21.949Z,69.19
2017-09-26T18:57:53.128Z,69.28
2017-09-26T19:00:20.820Z,69.45
2017-09-26T19:02:54.376Z,69.04
2017-09-26T19:05:23.252Z,69.05
2017-09-26T19:07:50.805Z,68.43
2017-09-26T19:10:18.365Z,68.33
2017-09-26T19:12:46.820Z,69.32
2017-09-26T19:15:14.408Z,69.12
2017-09-26T19:17:41.983Z,69.09
2017-09-26T19:20:09.592Z,69.21
2017-09-26T19:22:37.509Z,69.31
2017-09-26T19:25:05.079Z,69.65
2017-09-26T19:27:33.305Z,70.11
2017-09-26T19:30:00.872Z,69.19
2017-09-26T19:32:28.791Z,69.49
2017-09-26T19:34:56.384Z,68.45
2017-09-26T19:37:23.984Z,68.37
2017-09-26T19:39:52.874Z,69.23
2017-09-26T19:42:20.508Z,69.54
2017-09-26T19:44:48.146Z,70.18
2017-09-26T19:47:15.709Z,69.07
2017-09-26T19:49:43.364Z,69.23
2017-09-26T19:52:10.966Z,69.48
2017-09-26T19:54:38.641Z,69.56
2017-09-26T19:57:06.168Z,69.45
2017-09-26T19:59:33.769Z,69.67
2017-09-26T20:02:01.352Z,69.77
2017-09-26T20:04:28.994Z,69.68
2017-09-26T20:06:56.800Z,69.94
2017-09-26T20:09:24.866Z,69.51
2017-09-26T20:11:53.096Z,69.60
2017-09-26T20:14:22.145Z,69.53
2017-09-26T20:16:49.949Z,69.67
2017-09-26T20:19:17.744Z,69.92
2017-09-26T20:21:46.204Z,69.67
2017-09-26T20:24:14.344Z,69.88
2017-09-26T20:26:42.550Z,69.66
2017-09-26T20:29:15.082Z,69.93
2017-09-26T20:31:43.493Z,70.31
2017-09-26T20:34:11.988Z,69.86
2017-09-26T20:36:40.779Z,69.69
2017-09-26T20:39:08.408Z,69.39
2017-09-26T20:41:36.045Z,69.74
2017-09-26T20:44:03.843Z,70.03
2017-09-26T20:46:32.044Z,69.70
2017-09-26T20:49:00.405Z,70.55
2017-09-26T20:51:28.240Z,70.52
2017-09-26T20:53:56.026Z,70.53
2017-09-26T20:56:23.779Z,70.86
2017-09-26T20:58:51.420Z,70.73
2017-09-26T21:01:19.116Z,70.69
2017-09-26T21:03:46.759Z,70.43
2017-09-26T21:06:14.717Z,70.54
2017-09-26T21:08:42.372Z,71.02
2017-09-26T21:11:10.149Z,71.21
2017-09-26T21:13:38.023Z,70.62
2017-09-26T21:16:05.587Z,71.13
2017-09-26T21:18:33.277Z,70.80
2017-09-26T21:21:02.036Z,70.31
2017-09-26T21:23:31.137Z,69.98
2017-09-26T21:25:58.841Z,72.13
2017-09-26T21:28:28.268Z,71.31
2017-09-26T21:30:56.084Z,71.22
2017-09-26T21:33:26.131Z,71.33
2017-09-26T21:35:54.933Z,71.57
2017-09-26T21:38:22.454Z,72.12
2017-09-26T21:40:50.139Z,71.72
2017-09-26T21:43:17.746Z,72.01
2017-09-26T21:45:45.414Z,71.58
2017-09-26T21:48:13.337Z,71.70
2017-09-26T21:50:41.182Z,71.82
2017-09-26T21:53:08.758Z,72.13
2017-09-26T21:55:36.426Z,71.64
2017-09-26T21:58:04.225Z,71.81
2017-09-26T22:00:31.878Z,71.41
2017-09-26T22:02:59.593Z,71.25
2017-09-26T22:05:27.365Z,71.04
2017-09-26T22:07:56.640Z,71.15
2017-09-26T22:10:24.362Z,71.66
2017-09-26T22:12:52.896Z,71.69
2017-09-26T22:15:20.594Z,72.14
2017-09-26T22:17:48.181Z,72.35
2017-09-26T22:20:15.729Z,72.48
2017-09-26T22:22:43.373Z,72.19
2017-09-26T22:25:11.152Z,72.30
2017-09-26T22:27:39.774Z,72.56
2017-09-26T22:30:07.304Z,72.60
2017-09-26T22:32:35.054Z,72.72
2017-09-26T22:35:03.073Z,72.64
2017-09-26T22:37:30.626Z,72.63
2017-09-26T22:39:58.633Z,72.49
2017-09-26T22:42:26.241Z,72.23
2017-09-26T22:44:54.036Z,72.26
2017-09-26T22:47:22.454Z,72.03
2017-09-26T22:49:50.452Z,72.12
2017-09-26T22:52:18.148Z,71.95
2017-09-26T22:54:46.973Z,72.10
2017-09-26T22:57:14.748Z,71.97
2017-09-26T22:59:42.742Z,71.63
2017-09-26T23:02:10.286Z,71.73
2017-09-26T23:04:37.903Z,72.05
2017-09-26T23:07:06.317Z,72.60
2017-09-26T23:09:35.555Z,73.49
2017-09-26T23:12:03.411Z,72.87
2017-09-26T23:14:31.205Z,72.22
2017-09-26T23:16:58.862Z,72.18
2017-09-26T23:19:31.499Z,71.97
2017-09-26T23:21:59.341Z,72.48
2017-09-26T23:24:26.859Z,72.35
2017-09-26T23:26:54.588Z,72.14
2017-09-26T23:29:22.928Z,72.14
2017-09-26T23:31:50.912Z,71.96
2017-09-26T23:34:20.114Z,71.93
2017-09-26T23:36:48.601Z,72.08
2017-09-26T23:39:17.901Z,72.50
2017-09-26T23:41:45.744Z,71.97
2017-09-26T23:44:14.196Z,72.08
2017-09-26T23:46:42.595Z,72.14
2017-09-26T23:49:11.091Z,71.97
2017-09-26T23:51:38.827Z,71.82
2017-09-26T23:54:06.503Z,71.77
2017-09-26T23:56:43.488Z,71.55
2017-09-26T23:59:11.739Z,71.77
